• Join FlightAware (Why Join?)
  • Login
  • US Flag 
12:37AM EDT


 

Airport Tracker/Info


-or-


 

Live Flight TrackerFlight Track Log ✈ OPT330 ✈ 05-May-2014 ✈ KSBN - KACK

Flight Track Log - Related Links

Times and Time Zones

All times are in EDT time to prevent confusion due to time zone crossing. See the OPT330 flight status page for this flight to view local times or setup timezone preferences in your user account.

Time Position Orientation Groundspeed Altitude Reporting Facility
EDT Latitude Longitude Course Direction KTS MPH feet Rate Location/Type
09:18AM 41.7730 -85.9308 90° East 321 369 13,100  Level FlightAware ADS-B (KMDW)
09:18AM 41.7737 -85.8682 89° East 336 387 14,500 2,580 Climbing FlightAware ADS-B (KMDW)
09:19AM 41.7743 -85.7917 89° East 349 402 16,300 2,520 Climbing FlightAware ADS-B (KMDW)
09:20AM 41.7754 -85.6526 89° East 349 402 18,700 2,160 Climbing FlightAware ADS-B (KMDW)
09:21AM 41.7775 -85.4903 89° East 371 427 21,300 2,100 Climbing Chicago Center
09:22AM 41.7775 -85.3439 90° East 381 438 23,800 2,220 Climbing Chicago Center
09:23AM 41.7783 -85.1939 90° East 393 452 25,900 1,980 Climbing Chicago Center
09:24AM 41.7783 -85.1633 90° East 397 457 26,300 2,040 Climbing Chicago Center
09:25AM 41.7786 -85.0083 90° East 411 473 28,500 2,340 Climbing Chicago Center
09:26AM 41.7792 -84.8197 90° East 423 487 31,200 2,100 Climbing Chicago Center
09:26AM 41.7786 -84.7567 91° East 418 481 31,800 1,500 Climbing Cleveland Center
09:27AM 41.7778 -84.5956 90° East 428 493 33,600 1,920 Climbing Cleveland Center
09:28AM 41.7778 -84.4075 90° East 426 490 35,900 900 Climbing Cleveland Center
09:34AM 41.7566 -83.3987 97° East 477 549 40,300 720 Climbing FlightAware ADS-B (CYYZ)
09:35AM 41.7476 -83.3063 97° East 473 544 40,700 660 Climbing FlightAware ADS-B (CYYZ)
09:35AM 41.7403 -83.2309 97° East 467 537 41,000 300 Climbing FlightAware ADS-B (CYYZ)
09:36AM 41.7311 -83.1377 97° East 467 537 41,000  Level FlightAware ADS-B (CYYZ)
09:36AM 41.7230 -83.0576 97° East 468 539 41,000  Level FlightAware ADS-B (CYYZ)
09:37AM 41.7142 -82.9698 97° East 465 535 41,000  Level FlightAware ADS-B (CYYZ)
09:37AM 41.7054 -82.8822 97° East 464 534 41,000  Level FlightAware ADS-B (CYYZ)
09:38AM 41.6967 -82.7974 97° East 463 533 41,000  Level FlightAware ADS-B (CYYZ)
09:38AM 41.6895 -82.7272 97° East 463 533 41,000 360 Level FlightAware ADS-B (CYYZ)
09:40AM 41.6672 -82.5156 97° East 462 532 41,700 600 Climbing Cleveland Center
09:41AM 41.6464 -82.3161 98° East 461 531 42,500 480 Climbing Cleveland Center
09:46AM 41.5475 -81.4212 98° East 454 522 45,000 360 Climbing FlightAware ADS-B (CYYZ)
09:47AM 41.5291 -81.2651 98° East 454 522 45,000  Level FlightAware ADS-B (CYYZ)
09:48AM 41.5177 -81.1692 99° East 455 524 45,000  Level FlightAware ADS-B (EPWA / WAW)
09:48AM 41.5107 -81.1027 96° East 452 520 45,000  Level FlightAware ADS-B (CYYZ)
09:48AM 41.5109 -81.1055 96° East 453 521 45,000  Level FlightAware ADS-B (EPWA / WAW)
09:50AM 41.4879 -80.8193 97° East 453 521 45,000  Level FlightAware ADS-B (EPWA / WAW)
09:50AM 41.4881 -80.8006 80° East 440 506 45,000  Level FlightAware ADS-B (EPWA / WAW)
09:51AM 41.5100 -80.6785 71° East 431 496 45,000  Level FlightAware ADS-B (CYYZ)
09:51AM 41.5391 -80.5565 72° East 432 497 45,000  Level FlightAware ADS-B (CYYZ)
09:52AM 41.5587 -80.4738 72° East 432 497 45,000  Level FlightAware ADS-B (CYYZ)
09:52AM 41.5767 -80.3980 72° East 432 497 45,000  Level FlightAware ADS-B (CYYZ)
09:53AM 41.5941 -80.3247 72° East 433 498 45,000  Level FlightAware ADS-B (CYYZ)
09:53AM 41.6132 -80.2441 72° East 433 498 45,000  Level FlightAware ADS-B (CYYZ)
09:54AM 41.6311 -80.1681 72° East 433 498 45,000  Level FlightAware ADS-B (CYYZ)
09:54AM 41.6491 -80.0917 72° East 433 498 45,000  Level FlightAware ADS-B (CYYZ)
09:55AM 41.6673 -80.0143 72° East 433 498 45,000  Level FlightAware ADS-B (CYYZ)
09:55AM 41.6851 -79.9383 72° East 434 499 45,000  Level FlightAware ADS-B (CYYZ)
09:56AM 41.6956 -79.8933 73° East 434 499 45,000  Level FlightAware ADS-B (EPWA / WAW)
09:56AM 41.7022 -79.8649 72° East 434 499 45,000  Level FlightAware ADS-B (CYYZ)
09:56AM 41.7210 -79.7838 72° East 434 499 45,000  Level FlightAware ADS-B (CYYZ)
09:57AM 41.7207 -79.7851 73° East 434 499 45,000  Level FlightAware ADS-B (EPWA / WAW)
09:57AM 41.7383 -79.7087 72° East 435 501 45,000  Level FlightAware ADS-B (CYYZ)
09:57AM 41.7443 -79.6827 73° East 435 501 45,000  Level FlightAware ADS-B (EPWA / WAW)
09:57AM 41.7561 -79.6318 72° East 435 501 45,000  Level FlightAware ADS-B (CYYZ)
09:58AM 41.7683 -79.5786 73° East 435 501 45,000  Level FlightAware ADS-B (EPWA / WAW)
09:58AM 41.7738 -79.5544 73° East 434 499 45,000  Level FlightAware ADS-B (CYYZ)
09:58AM 41.7849 -79.5060 73° East 436 502 45,000  Level FlightAware ADS-B (EPWA / WAW)
09:58AM 41.7916 -79.4769 72° East 436 502 45,000  Level FlightAware ADS-B (CYYZ)
09:59AM 41.8095 -79.3988 73° East 435 501 45,000  Level FlightAware ADS-B (CYYZ)
09:59AM 41.8274 -79.3202 73° East 436 502 45,000  Level FlightAware ADS-B (CYYZ)
09:59AM 41.8299 -79.3092 73° East 437 503 45,000  Level FlightAware ADS-B (EPWA / WAW)
10:00AM 41.8448 -79.2434 73° East 437 503 45,000  Level FlightAware ADS-B (CYYZ)
10:00AM 41.8620 -79.1669 73° East 437 503 45,000  Level FlightAware ADS-B (CYYZ)
10:01AM 41.8591 -79.1798 73° East 439 505 45,000  Level FlightAware ADS-B (EPWA / WAW)
10:01AM 41.8797 -79.0884 73° East 438 504 45,000  Level FlightAware ADS-B (CYYZ)
10:01AM 41.8919 -79.0340 73° East 439 505 45,000  Level FlightAware ADS-B (EPWA / WAW)
10:01AM 41.8967 -79.0127 73° East 438 504 45,000  Level FlightAware ADS-B (CYYZ)
10:02AM 41.9145 -78.9330 73° East 439 505 45,000  Level FlightAware ADS-B (CYYZ)
10:02AM 41.9229 -78.8951 74° East 439 505 45,000  Level FlightAware ADS-B (EPWA / WAW)
10:02AM 41.9323 -78.8528 73° East 440 506 45,000  Level FlightAware ADS-B (CYYZ)
10:03AM 41.9495 -78.7754 73° East 440 506 45,000  Level FlightAware ADS-B (CYYZ)
10:03AM 41.9667 -78.6976 73° East 440 506 45,000  Level FlightAware ADS-B (CYYZ)
10:04AM 41.9844 -78.6172 73° East 441 507 45,000  Level FlightAware ADS-B (CYYZ)
10:04AM 42.0016 -78.5389 73° East 441 507 45,000  Level FlightAware ADS-B (CYYZ)
10:05AM 42.0189 -78.4597 73° East 441 507 45,000  Level FlightAware ADS-B (CYYZ)
10:05AM 42.0359 -78.3817 73° East 441 507 45,000  Level FlightAware ADS-B (CYYZ)
10:06AM 42.0532 -78.3019 73° East 442 509 45,000  Level FlightAware ADS-B (CYYZ)
10:06AM 42.0640 -78.2510 73° East 443 510 45,000  Level FlightAware ADS-B (KPEO)
10:06AM 42.0698 -78.2248 73° East 442 509 45,000  Level FlightAware ADS-B (CYYZ)
10:07AM 42.0873 -78.1438 73° East 443 510 45,000  Level FlightAware ADS-B (CYYZ)
10:07AM 42.0990 -78.0980 65° Northeast 436 502 45,000  Level FlightAware ADS-B (KPEO)
10:08AM 42.1268 -78.0230 64° Northeast 431 496 45,000  Level FlightAware ADS-B (CYYZ)
10:08AM 42.1290 -78.0160 64° Northeast 432 497 45,000  Level FlightAware ADS-B (KPEO)
10:08AM 42.1526 -77.9501 64° Northeast 430 495 45,000  Level FlightAware ADS-B (CYYZ)
10:08AM 42.1560 -77.9410 64° Northeast 432 497 45,000  Level FlightAware ADS-B (KPEO)
10:09AM 42.1784 -77.8760 65° Northeast 429 494 45,000  Level FlightAware ADS-B (CYYZ)
10:09AM 42.1870 -77.8520 64° Northeast 430 495 45,000  Level FlightAware ADS-B (KPEO)
10:09AM 42.2037 -77.8029 64° Northeast 428 493 45,000  Level FlightAware ADS-B (CYYZ)
10:09AM 42.2120 -77.7780 64° Northeast 429 494 45,000  Level FlightAware ADS-B (KPEO)
10:10AM 42.2292 -77.7295 65° Northeast 427 491 45,000  Level FlightAware ADS-B (CYYZ)
10:10AM 42.2390 -77.7000 64° Northeast 428 493 45,000  Level FlightAware ADS-B (KPEO)
10:10AM 42.2539 -77.6577 65° Northeast 425 489 45,000  Level FlightAware ADS-B (CYYZ)
10:11AM 42.2700 -77.6110 64° Northeast 425 489 45,000  Level FlightAware ADS-B (KPEO)
10:11AM 42.2780 -77.5881 64° Northeast 425 489 45,000  Level FlightAware ADS-B (CYYZ)
10:11AM 42.2950 -77.5380 64° Northeast 425 489 45,000  Level FlightAware ADS-B (KPEO)
10:11AM 42.3041 -77.5134 64° Northeast 423 487 45,000  Level FlightAware ADS-B (CYYZ)
10:11AM 42.3160 -77.4780 68° East 428 493 45,000  Level FlightAware ADS-B (KPEO)
10:12AM 42.3271 -77.4264 76° East 432 497 45,000  Level FlightAware ADS-B (CYYZ)
10:12AM 42.3360 -77.3810 75° East 432 497 45,000  Level FlightAware ADS-B (KPEO)
10:12AM 42.3422 -77.3478 75° East 429 494 45,000  Level FlightAware ADS-B (CYYZ)
10:13AM 42.3500 -77.3090 74° East 430 495 45,000  Level FlightAware ADS-B (KPEO)
10:13AM 42.3567 -77.2746 75° East 429 494 45,000  Level FlightAware ADS-B (CYYZ)
10:13AM 42.3574 -77.2709 76° East 427 491 45,000  Level FlightAware ADS-B (CYGK)
10:13AM 42.3670 -77.2220 75° East 430 495 45,000  Level FlightAware ADS-B (KPEO)
10:13AM 42.3722 -77.1954 75° East 428 493 45,000  Level FlightAware ADS-B (CYYZ)
10:14AM 42.3775 -77.1676 77° East 427 491 45,000  Level FlightAware ADS-B (CYGK)
10:14AM 42.3873 -77.1167 75° East 428 493 45,000  Level FlightAware ADS-B (CYYZ)
10:14AM 42.3930 -77.0890 75° East 429 494 45,000  Level FlightAware ADS-B (KPEO)
10:14AM 42.3937 -77.0831 75° East 429 494 45,000  Level FlightAware ADS-B (CYOW)
10:14AM 42.4013 -77.0437 75° East 428 493 45,000  Level FlightAware ADS-B (CYYZ)
10:15AM 42.4110 -76.9950 75° East 428 493 45,000  Level FlightAware ADS-B (KPEO)
10:15AM 42.4121 -76.9868 76° East 427 491 45,000  Level FlightAware ADS-B (CYOW)
10:15AM 42.4168 -76.9618 75° East 427 491 45,000  Level FlightAware ADS-B (CYYZ)
10:15AM 42.4260 -76.9140 75° East 428 493 45,000  Level FlightAware ADS-B (KPEO)
10:15AM 42.4316 -76.8837 75° East 427 491 45,000  Level FlightAware ADS-B (CYYZ)
10:15AM 42.4357 -76.8623 77° East 425 489 45,000  Level FlightAware ADS-B (CYGK)
10:16AM 42.4430 -76.8220 75° East 428 493 45,000  Level FlightAware ADS-B (KPEO)
10:16AM 42.4462 -76.8066 75° East 427 491 45,000  Level FlightAware ADS-B (CYYZ)
10:16AM 42.4556 -76.7564 77° East 425 489 45,000  Level FlightAware ADS-B (CYGK)
10:16AM 42.4580 -76.7460 75° East 428 493 45,000  Level FlightAware ADS-B (KPEO)
10:16AM 42.4609 -76.7279 75° East 426 490 45,000  Level FlightAware ADS-B (CYYZ)
10:17AM 42.4755 -76.6496 75° East 426 490 45,000  Level FlightAware ADS-B (CYYZ)
10:17AM 42.4817 -76.6167 77° East 425 489 45,000  Level FlightAware ADS-B (CYGK)
10:17AM 42.4900 -76.5714 76° East 426 490 45,000  Level FlightAware ADS-B (CYYZ)
10:18AM 42.4970 -76.5340 75° East 427 491 45,000  Level FlightAware ADS-B (KPEO)
10:18AM 42.5040 -76.4962 76° East 426 490 45,000  Level FlightAware ADS-B (CYYZ)
10:18AM 42.5120 -76.4500 75° East 427 491 45,000  Level FlightAware ADS-B (KPEO)
10:18AM 42.5102 -76.4625 77° East 425 489 45,000  Level FlightAware ADS-B (CYGK)
10:18AM 42.5188 -76.4162 76° East 426 490 45,000  Level FlightAware ADS-B (CYYZ)
10:19AM 42.5260 -76.3780 76° East 427 491 45,000  Level FlightAware ADS-B (KPEO)
10:19AM 42.5329 -76.3393 76° East 426 490 45,000  Level FlightAware ADS-B (CYYZ)
10:19AM 42.5440 -76.2810 76° East 428 493 45,000  Level FlightAware ADS-B (KPEO)
10:19AM 42.5469 -76.2628 76° East 427 491 45,000  Level FlightAware ADS-B (CYYZ)
10:20AM 42.5614 -76.1832 76° East 426 490 45,000  Level FlightAware ADS-B (CYYZ)
10:20AM 42.5752 -76.1069 76° East 426 490 45,000  Level FlightAware ADS-B (CYYZ)
10:20AM 42.5740 -76.1160 76° East 427 491 45,000  Level FlightAware ADS-B (KPEO)
10:21AM 42.5896 -76.0276 76° East 426 490 45,000  Level FlightAware ADS-B (CYYZ)
10:21AM 42.5910 -76.0190 76° East 426 490 45,000  Level FlightAware ADS-B (KPEO)
10:21AM 42.5948 -75.9989 76° East 425 489 45,000  Level FlightAware ADS-B (CYGK)
10:21AM 42.6033 -75.9518 76° East 424 488 45,000  Level FlightAware ADS-B (CYYZ)
10:21AM 42.6070 -75.9330 76° East 426 490 45,000  Level FlightAware ADS-B (KPEO)
10:22AM 42.6174 -75.8727 76° East 423 487 45,000  Level FlightAware ADS-B (CYYZ)
10:22AM 42.6190 -75.8610 76° East 425 489 45,000  Level FlightAware ADS-B (KPEO)
10:22AM 42.6313 -75.7950 76° East 423 487 45,000  Level FlightAware ADS-B (CYYZ)
10:23AM 42.6370 -75.7630 76° East 423 487 45,000  Level FlightAware ADS-B (KPEO)
10:23AM 42.6450 -75.7180 76° East 422 486 45,000  Level FlightAware ADS-B (CYYZ)
10:23AM 42.6510 -75.6860 76° East 423 487 45,000  Level FlightAware ADS-B (KPEO)
10:23AM 42.6585 -75.6416 76° East 422 486 45,000  Level FlightAware ADS-B (CYYZ)
10:24AM 42.6650 -75.6030 76° East 423 487 45,000  Level FlightAware ADS-B (KPEO)
10:24AM 42.6720 -75.5653 76° East 422 486 45,000  Level FlightAware ADS-B (CYYZ)
10:24AM 42.6830 -75.5000 76° East 422 486 45,000  Level FlightAware ADS-B (KPEO)
10:24AM 42.6857 -75.4868 76° East 421 484 45,000  Level FlightAware ADS-B (CYYZ)
10:25AM 42.6960 -75.4270 76° East 423 487 45,000  Level FlightAware ADS-B (KPEO)
10:25AM 42.6990 -75.4111 76° East 422 486 45,000  Level FlightAware ADS-B (CYYZ)
10:25AM 42.6999 -75.4057 76° East 425 489 45,000  Level FlightAware ADS-B (CYGK)
10:25AM 42.7122 -75.3348 76° East 421 484 45,000  Level FlightAware ADS-B (CYYZ)
10:26AM 42.7220 -75.2810 76° East 422 486 45,000  Level FlightAware ADS-B (KPEO)
10:26AM 42.7253 -75.2597 76° East 421 484 45,000  Level FlightAware ADS-B (CYYZ)
10:26AM 42.7340 -75.2090 77° East 422 486 45,000  Level FlightAware ADS-B (CYOW)
10:26AM 42.7394 -75.1778 76° East 422 486 45,000  Level FlightAware ADS-B (CYYZ)
10:26AM 42.7390 -75.1780 76° East 423 487 45,000  Level FlightAware ADS-B (KPEO)
10:27AM 42.7492 -75.1206 77° East 421 484 45,000  Level FlightAware ADS-B (CYOW)
10:27AM 42.7501 -75.1155 76° East 420 483 45,000  Level FlightAware ADS-B (CYYZ)
10:27AM 42.7520 -75.1030 76° East 422 486 45,000  Level FlightAware ADS-B (KPEO)
10:27AM 42.7622 -75.0449 77° East 422 486 45,000  Level FlightAware ADS-B (CYOW)
10:27AM 42.7657 -75.0248 76° East 420 483 45,000  Level FlightAware ADS-B (CYYZ)
10:28AM 42.7720 -74.9900 76° East 423 487 45,000  Level FlightAware ADS-B (KPEO)
10:28AM 42.7700 -74.9992 76° East 420 483 45,000  Level FlightAware ADS-B (CYYZ)
10:28AM 42.7807 -74.9369 77° East 421 484 45,000  Level FlightAware ADS-B (CYOW)
10:28AM 42.7880 -74.8960 76° East 421 484 45,000  Level FlightAware ADS-B (KPEO)
10:28AM 42.7937 -74.8603 78° East 419 482 45,000  Level FlightAware ADS-B (CYGK)
10:29AM 42.8010 -74.8190 77° East 422 486 45,000  Level FlightAware ADS-B (KPEO)
10:29AM 42.8084 -74.7731 77° East 423 487 45,000  Level FlightAware ADS-B (CYOW)
10:29AM 42.8123 -74.7493 77° East 422 486 45,000  Level FlightAware ADS-B (CYOW)
10:29AM 42.8170 -74.7240 77° East 423 487 45,000  Level FlightAware ADS-B
10:30AM 42.8290 -74.6470 77° East 423 487 45,000  Level FlightAware ADS-B
10:30AM 42.8440 -74.5580 77° East 425 489 45,000  Level FlightAware ADS-B
10:31AM 42.8488 -74.5305 77° East 426 490 45,000  Level FlightAware ADS-B (CYOW)
10:31AM 42.8710 -74.3930 77° East 425 489 45,000  Level FlightAware ADS-B
10:31AM 42.8741 -74.3775 77° East 423 487 45,000  Level FlightAware ADS-B (CYOW)
10:32AM 42.8869 -74.2991 78° East 422 486 45,000  Level FlightAware ADS-B (CYOW)
10:32AM 42.9000 -74.2200 77° East 423 487 45,000  Level FlightAware ADS-B
10:33AM 42.9032 -74.1993 79° East 421 484 45,000  Level FlightAware ADS-B (CYGK)
10:33AM 42.9130 -74.1390 77° East 425 489 45,000  Level FlightAware ADS-B
10:34AM 42.9268 -74.0542 78° East 424 488 45,000  Level FlightAware ADS-B (CYOW)
10:34AM 42.9280 -74.0490 77° East 425 489 45,000  Level FlightAware ADS-B
10:34AM 42.9400 -73.9710 77° East 422 486 45,000  Level FlightAware ADS-B
10:34AM 42.9411 -73.9653 78° East 422 486 45,000  Level FlightAware ADS-B (CYOW)
10:35AM 42.9569 -73.8663 78° East 425 489 45,000  Level FlightAware ADS-B (CYOW)
10:35AM 42.9660 -73.8080 77° East 424 488 45,000  Level FlightAware ADS-B
10:35AM 42.9730 -73.7650 78° East 424 488 45,000  Level FlightAware ADS-B (CYOW)
10:36AM 42.9820 -73.7090 77° East 424 488 45,000  Level FlightAware ADS-B
10:36AM 42.9743 -73.7566 78° East 423 487 45,000  Level FlightAware ADS-B
10:36AM 42.9950 -73.6250 77° East 423 487 45,000  Level FlightAware ADS-B
10:37AM 43.0071 -73.5486 78° East 423 487 45,000  Level FlightAware ADS-B (CYOW)
10:37AM 43.0132 -73.5095 79° East 423 487 45,000  Level FlightAware ADS-B (CYGK)
10:38AM 43.0270 -73.4240 78° East 426 490 45,000  Level FlightAware ADS-B
10:38AM 43.0363 -73.3604 78° East 424 488 45,000  Level FlightAware ADS-B (CYOW)
10:38AM 43.0390 -73.3410 78° East 425 489 45,000  Level FlightAware ADS-B
10:39AM 43.0530 -73.2510 78° East 425 489 45,000  Level FlightAware ADS-B
10:39AM 43.0528 -73.2535 79° East 423 487 45,000  Level FlightAware ADS-B (CYGK)
10:39AM 43.0680 -73.1550 78° East 425 489 45,000  Level FlightAware ADS-B
10:40AM 43.0778 -73.0901 78° East 425 489 45,000  Level FlightAware ADS-B (CYOW)
10:40AM 43.0810 -73.0690 78° East 425 489 45,000  Level FlightAware ADS-B
10:40AM 43.0950 -72.9760 78° East 425 489 45,000  Level FlightAware ADS-B
10:41AM 43.1080 -72.8870 78° East 426 490 45,000  Level FlightAware ADS-B
10:41AM 43.1106 -72.8732 79° East 425 489 45,000  Level FlightAware ADS-B (KASH)
10:41AM 43.1180 -72.8260 78° East 426 490 45,000  Level FlightAware ADS-B
10:42AM 43.1181 -72.8233 79° East 426 490 45,000  Level FlightAware ADS-B
10:42AM 43.1390 -72.6850 78° East 426 490 45,000  Level FlightAware ADS-B
10:42AM 43.1429 -72.6561 79° East 425 489 45,000  Level FlightAware ADS-B (KASH)
10:43AM 43.1510 -72.6000 78° East 426 490 45,000  Level FlightAware ADS-B
10:43AM 43.1544 -72.5788 79° East 425 489 45,000  Level FlightAware ADS-B (KASH)
10:44AM 43.1700 -72.4750 78° East 426 490 45,000  Level FlightAware ADS-B
10:44AM 43.1716 -72.4618 79° East 425 489 45,000  Level FlightAware ADS-B (KASH)
10:44AM 43.1832 -72.3821 79° East 426 490 45,000  Level FlightAware ADS-B (KASH)
10:45AM 43.1920 -72.3200 78° East 427 491 45,000  Level FlightAware ADS-B
10:45AM 43.1949 -72.3015 79° East 425 489 45,000  Level FlightAware ADS-B (KASH)
10:45AM 43.2087 -72.2053 79° East 425 489 45,000  Level FlightAware ADS-B (KSNC)
10:46AM 43.2234 -72.1030 79° East 426 490 45,000  Level FlightAware ADS-B (KASH)
10:47AM 43.2402 -71.9846 79° East 426 490 45,000  Level FlightAware ADS-B (KASH)
10:47AM 43.2440 -71.9560 78° East 427 491 45,000  Level FlightAware ADS-B
10:47AM 43.2516 -71.9043 79° East 428 493 45,000  Level FlightAware ADS-B (KASH)
10:47AM 43.2570 -71.8630 79° East 428 493 45,000  Level FlightAware ADS-B
10:48AM 43.2671 -71.7938 79° East 428 493 45,000  Level FlightAware ADS-B (KBOS)
10:48AM 43.2690 -71.7790 79° East 428 493 45,000  Level FlightAware ADS-B
10:48AM 43.2781 -71.7146 79° East 427 491 45,000  Level FlightAware ADS-B (KBOS)
10:48AM 43.2800 -71.6980 79° East 428 493 45,000  Level FlightAware ADS-B
10:49AM 43.2894 -71.6330 79° East 427 491 45,000  Level FlightAware ADS-B (KBOS)
10:49AM 43.2910 -71.6180 79° East 428 493 45,000  Level FlightAware ADS-B
10:49AM 43.3005 -71.5522 79° East 427 491 45,000  Level FlightAware ADS-B (KBOS)
10:49AM 43.3030 -71.5360 79° East 428 493 45,000  Level FlightAware ADS-B
10:50AM 43.3122 -71.4673 79° East 427 491 45,000  Level FlightAware ADS-B (KASH)
10:50AM 43.3170 -71.4320 79° East 428 493 45,000  Level FlightAware ADS-B
10:51AM 43.3279 -71.3524 80° East 428 493 45,000  Level FlightAware ADS-B (KBOS)
10:51AM 43.3320 -71.3240 79° East 429 494 45,000  Level FlightAware ADS-B
10:51AM 43.3333 -71.3122 80° East 427 491 45,000  Level FlightAware ADS-B
10:51AM 43.3387 -71.2723 81° East 425 489 45,000  Level FlightAware ADS-B (KASH)
10:52AM 43.3460 -71.2150 79° East 427 491 45,000  Level FlightAware ADS-B
10:52AM 43.3503 -71.1862 81° East 425 489 45,000  Level FlightAware ADS-B (KASH)
10:52AM 43.3600 -71.1130 79° East 429 494 45,000  Level FlightAware ADS-B
10:52AM 43.3618 -71.1006 80° East 427 491 45,000  Level FlightAware ADS-B (KBOS)
10:52AM 43.3660 -71.0687 81° East 425 489 45,000  Level FlightAware ADS-B (KASH)
10:53AM 43.3740 -71.0100 79° East 427 491 45,000 -420 Level FlightAware ADS-B
10:53AM 43.3769 -70.9873 81° East 428 493 44,800 -1,980 Descending FlightAware ADS-B (KASH)
10:53AM 43.3880 -70.9040 79° East 442 509 43,800 -2,100 Descending FlightAware ADS-B
10:54AM 43.3905 -70.8843 80° East 444 511 43,500 -2,160 Descending FlightAware ADS-B (KBOS)
10:54AM 43.3940 -70.8260 88° East 453 521 42,800 -2,160 Descending FlightAware ADS-B
10:54AM 43.3929 -70.7940 96° East 458 527 42,400 -2,040 Descending FlightAware ADS-B (KBOS)
10:54AM 43.3910 -70.7740 99° East 460 529 42,200 -2,040 Descending FlightAware ADS-B
10:54AM 43.3836 -70.7353 107° East 462 532 41,700 -2,400 Descending FlightAware ADS-B (KASH)
10:55AM 43.3568 -70.6570 121° Southeast 462 532 40,500 -2,220 Descending FlightAware ADS-B (KASH)
10:55AM 43.3560 -70.6560 124° Southeast 468 539 40,500 -2,400 Level FlightAware ADS-B
10:55AM 43.3306 -70.6105 132° Southeast 469 540 39,700 -2,880 Descending FlightAware ADS-B (KBOS)
10:55AM 43.3259 -70.6039 132° Southeast 464 534 39,600 -2,820 Descending FlightAware ADS-B
10:56AM 43.2867 -70.5597 146° Southeast 472 543 38,500 -2,760 Descending FlightAware ADS-B (KASH)
10:56AM 43.2278 -70.5215 161° South 460 529 37,200 -2,640 Descending FlightAware ADS-B (KASH)
10:57AM 43.1664 -70.4935 160° South 458 527 35,900 -2,700 Descending FlightAware ADS-B (KASH)
10:57AM 43.1060 -70.4641 161° South 458 527 34,500 -2,820 Descending FlightAware ADS-B (KASH)
10:58AM 43.0467 -70.4358 161° South 456 525 33,100 -2,760 Descending FlightAware ADS-B (KASH)
10:58AM 42.9841 -70.4066 161° South 460 529 31,700 -2,640 Descending FlightAware ADS-B (KBOS)
10:59AM 42.9222 -70.3778 161° South 457 526 30,400 -2,700 Descending FlightAware ADS-B (KBOS)
10:59AM 42.8630 -70.3504 161° South 444 511 29,000 -2,700 Descending FlightAware ADS-B (KBOS)
11:00AM 42.8095 -70.3255 161° South 429 494 27,700 -2,640 Descending FlightAware ADS-B (KBOS)
11:00AM 42.7434 -70.2950 161° South 430 495 26,200 -2,760 Descending FlightAware ADS-B (KBOS)
11:01AM 42.6671 -70.2599 161° South 426 490 24,400 -2,760 Descending FlightAware ADS-B (KASH)
11:01AM 42.6093 -70.2333 161° South 430 495 23,000 -2,760 Descending FlightAware ADS-B (KASH)
11:02AM 42.5847 -70.2222 164° South 436 502 22,400 -2,760 Descending FlightAware ADS-B (KASH)
11:02AM 42.5043 -70.1958 167° South 425 489 20,500 -2,760 Descending FlightAware ADS-B (KBOS)
11:03AM 42.4445 -70.1772 167° South 418 481 19,100 -2,760 Descending FlightAware ADS-B (KBOS)
11:03AM 42.3817 -70.1568 166° South 413 475 17,600 -2,760 Descending FlightAware ADS-B (KASH)
11:04AM 42.3206 -70.1368 166° South 408 470 16,100 -2,580 Descending FlightAware ADS-B (KBOS)
11:05AM 42.2566 -70.1158 166° South 400 460 14,700 -2,340 Descending FlightAware ADS-B (KBOS)
11:05AM 42.2035 -70.0982 166° South 390 449 13,600 -2,100 Descending FlightAware ADS-B (KBOS)
11:06AM 42.1509 -70.0809 166° South 383 441 12,600 -1,860 Descending FlightAware ADS-B (KBOS)
11:06AM 42.0707 -70.0546 166° South 365 420 11,200 -1,080 Descending FlightAware ADS-B (KBOS)
11:07AM 42.0199 -70.0383 169° South 350 403 11,200  Level FlightAware ADS-B (KBOS)
11:07AM 42.0036 -70.0365 180° South 347 399 11,200 -600 Level FlightAware ADS-B (KBOS)
11:08AM 41.9603 -70.0394 180° South 344 396 10,700 -1,320 Descending Boston Center
11:09AM 41.8789 -70.0417 181° South 297 342 9,000 -1,800 Descending Boston Center
11:10AM 41.7994 -70.0439 181° South 288 331 7,200 -1,860 Descending Boston Center
11:11AM 41.7044 -70.0467 181° South 288 331 5,300 -1,020 Descending Boston Center
11:12AM 41.6275 -70.0486 181° South 285 328 5,100 -120 Descending Boston Center
11:13AM 41.5486 -70.0478 180° South 283 326 5,100 -60 Level Boston Center
11:14AM 41.4706 -70.0386 175° South 282 325 5,000 -1,080 Descending Boston Center
11:15AM 41.3931 -70.0447 183° South 282 325 3,000 -1,800 Descending Boston Center
11:16AM 41.3211 -70.0572 187° South 272 313 1,400 -960 Descending Boston Center
11:17AM 41.2769 -70.0208 148° Southeast 221 254 1,100 -300 Descending Boston Center
11:18AM 41.2439 -70.0100 166° South 182 209 800 -300 Descending Boston Center
11:19AM 41.2469 -70.0728 274° West 173 199 600 -240 Descending Boston Center